Time;durP1;ratioP1;P1;durP2;ratioP2;P2;SDS_P1;SDS_P2;PMS_P1;PMS_P2;Temp;Humidity;BMP_temperature;BMP_pressure;BME280_temperature;BME280_humidity;BME280_pressure;Samples;Min_cycle;Max_cycle;Signal;HPM_P1;HPM_P2
2023/09/07 00:02:23;;;;;;;539.20;264.70;;;;;;;;;;4991815;28;20204;-61
2023/09/07 00:04:49;;;;;;;533.33;264.43;;;;;;;;;;4975861;28;20221;-62
2023/09/07 00:07:15;;;;;;;510.07;250.50;;;;;;;;;;4977148;28;20210;-62
2023/09/07 00:09:41;;;;;;;526.23;260.47;;;;;;;;;;4971161;28;20248;-62
2023/09/07 00:12:07;;;;;;;501.83;245.83;;;;;;;;;;4972538;28;20282;-62
2023/09/07 00:14:33;;;;;;;526.77;263.20;;;;;;;;;;4974564;28;20311;-63
2023/09/07 00:16:59;;;;;;;514.70;252.07;;;;;;;;;;4977714;28;20722;-62
2023/09/07 00:19:25;;;;;;;472.53;226.40;;;;;;;;;;4986762;28;20254;-63
2023/09/07 00:21:51;;;;;;;531.53;260.03;;;;;;;;;;4986111;28;20209;-62
2023/09/07 00:24:18;;;;;;;486.27;242.63;;;;;;;;;;4983778;28;20240;-62
2023/09/07 00:26:44;;;;;;;535.07;264.03;;;;;;;;;;4984487;28;20181;-61
2023/09/07 00:29:10;;;;;;;551.40;276.03;;;;;;;;;;4966367;28;20211;-61
2023/09/07 00:31:36;;;;;;;505.87;255.53;;;;;;;;;;4972844;28;20585;-62
2023/09/07 00:34:02;;;;;;;495.43;245.97;;;;;;;;;;4970137;28;20228;-63
2023/09/07 00:36:28;;;;;;;483.70;236.60;;;;;;;;;;4957971;28;20352;-62
2023/09/07 00:38:54;;;;;;;565.53;277.30;;;;;;;;;;4968540;28;20301;-63
2023/09/07 00:41:20;;;;;;;479.10;232.93;;;;;;;;;;4976895;28;20761;-62
2023/09/07 00:43:46;;;;;;;520.63;255.73;;;;;;;;;;4974301;28;20225;-62
2023/09/07 00:46:12;;;;;;;482.03;229.30;;;;;;;;;;4982824;28;20214;-62
2023/09/07 00:48:38;;;;;;;533.03;260.33;;;;;;;;;;4962438;28;20256;-62
2023/09/07 00:51:04;;;;;;;494.90;236.90;;;;;;;;;;4965174;28;20324;-61
2023/09/07 00:53:30;;;;;;;532.63;262.00;;;;;;;;;;4966122;28;20220;-62
2023/09/07 00:55:57;;;;;;;490.57;234.23;;;;;;;;;;4981077;28;20224;-62
2023/09/07 00:58:23;;;;;;;512.53;249.70;;;;;;;;;;4972920;28;20213;-61
2023/09/07 01:00:49;;;;;;;492.47;238.97;;;;;;;;;;4984553;28;20719;-63
2023/09/07 01:03:15;;;;;;;527.07;252.97;;;;;;;;;;4985826;28;20210;-63
2023/09/07 01:05:43;;;;;;;511.53;245.43;;;;;;;;;;4977497;28;20920;-62
2023/09/07 01:08:19;;;;;;;558.67;267.47;;;;;;;;;;4963455;28;20182;-62
2023/09/07 01:10:45;;;;;;;561.63;275.03;;;;;;;;;;4966156;28;20213;-61
2023/09/07 01:13:11;;;;;;;555.47;273.70;;;;;;;;;;4961444;28;22654;-62
2023/09/07 01:15:38;;;;;;;514.23;242.73;;;;;;;;;;4964975;28;20258;-62
2023/09/07 01:18:04;;;;;;;539.23;258.70;;;;;;;;;;4966587;28;20220;-62
2023/09/07 01:20:31;;;;;;;562.83;274.87;;;;;;;;;;4964454;28;20448;-62
2023/09/07 01:22:57;;;;;;;474.53;224.70;;;;;;;;;;4966997;28;20229;-62
2023/09/07 01:25:24;;;;;;;470.20;219.07;;;;;;;;;;4965653;28;20229;-63
2023/09/07 01:27:50;;;;;;;548.17;261.67;;;;;;;;;;4963576;28;20221;-62
2023/09/07 01:30:17;;;;;;;510.87;242.27;;;;;;;;;;4963878;28;20735;-62
2023/09/07 01:32:43;;;;;;;516.80;245.77;;;;;;;;;;4966192;28;20270;-62
2023/09/07 01:35:10;;;;;;;476.13;227.30;;;;;;;;;;4967393;28;20297;-63
2023/09/07 01:37:36;;;;;;;509.80;249.37;;;;;;;;;;4964768;28;20610;-61
2023/09/07 01:40:07;;;;;;;465.53;229.40;;;;;;;;;;4967129;28;20213;-62
2023/09/07 01:42:33;;;;;;;478.83;232.53;;;;;;;;;;4969967;28;20237;-63
2023/09/07 01:44:58;;;;;;;506.57;242.43;;;;;;;;;;4964216;28;20221;-62
2023/09/07 01:47:24;;;;;;;501.30;239.13;;;;;;;;;;4963309;28;20188;-62
2023/09/07 01:49:50;;;;;;;524.77;249.93;;;;;;;;;;4964955;28;20786;-62
2023/09/07 01:52:16;;;;;;;484.60;233.67;;;;;;;;;;4965665;28;20232;-62
2023/09/07 01:54:42;;;;;;;522.67;253.70;;;;;;;;;;4964944;28;20232;-62
2023/09/07 01:57:08;;;;;;;477.33;229.93;;;;;;;;;;4980673;28;20224;-61
2023/09/07 01:59:34;;;;;;;514.00;248.40;;;;;;;;;;4978626;28;20284;-61
2023/09/07 02:02:00;;;;;;;500.77;236.97;;;;;;;;;;4972046;28;20216;-62
2023/09/07 02:04:26;;;;;;;517.63;243.47;;;;;;;;;;4969729;28;20551;-62
2023/09/07 02:06:52;;;;;;;525.40;251.17;;;;;;;;;;4972782;28;20217;-62
2023/09/07 02:09:17;;;;;;;528.17;256.50;;;;;;;;;;4970673;28;20225;-62
2023/09/07 02:11:43;;;;;;;535.90;261.37;;;;;;;;;;4972804;28;20201;-61
2023/09/07 02:14:10;;;;;;;520.93;249.57;;;;;;;;;;4968469;28;20303;-62
2023/09/07 02:16:36;;;;;;;497.07;241.57;;;;;;;;;;4965336;28;20228;-62
2023/09/07 02:19:09;;;;;;;502.83;245.73;;;;;;;;;;4970407;28;20209;-62
2023/09/07 02:21:35;;;;;;;505.87;247.43;;;;;;;;;;4968228;28;20214;-62
2023/09/07 02:24:01;;;;;;;492.77;234.73;;;;;;;;;;4968107;28;20252;-63
2023/09/07 02:26:26;;;;;;;518.23;246.47;;;;;;;;;;4969396;28;20190;-62
2023/09/07 02:28:52;;;;;;;516.37;252.10;;;;;;;;;;4966804;28;20323;-62
2023/09/07 02:31:19;;;;;;;490.20;225.87;;;;;;;;;;4967021;28;20639;-63
2023/09/07 02:33:45;;;;;;;492.73;231.77;;;;;;;;;;4947203;28;20632;-63
2023/09/07 02:36:11;;;;;;;510.73;236.90;;;;;;;;;;4964311;28;20294;-63
2023/09/07 02:38:37;;;;;;;489.83;230.80;;;;;;;;;;4969356;28;20319;-62
2023/09/07 02:41:03;;;;;;;519.43;244.63;;;;;;;;;;4966585;28;20332;-63
2023/09/07 02:43:29;;;;;;;536.50;251.83;;;;;;;;;;4964267;28;21292;-62
2023/09/07 02:45:55;;;;;;;524.67;248.10;;;;;;;;;;4965365;28;20237;-63
2023/09/07 02:48:21;;;;;;;498.53;234.50;;;;;;;;;;4967529;28;20229;-63
2023/09/07 02:50:50;;;;;;;522.73;246.73;;;;;;;;;;4968270;28;20803;-63
2023/09/07 02:53:16;;;;;;;489.93;227.30;;;;;;;;;;4973351;28;20205;-63
2023/09/07 02:55:42;;;;;;;503.53;234.23;;;;;;;;;;4953239;28;20760;-62
2023/09/07 02:58:08;;;;;;;468.67;218.37;;;;;;;;;;4969346;28;20217;-62
2023/09/07 03:00:34;;;;;;;505.13;237.20;;;;;;;;;;4975240;28;20271;-62
2023/09/07 03:03:00;;;;;;;527.40;247.03;;;;;;;;;;4970405;28;20217;-63
2023/09/07 03:05:29;;;;;;;513.03;242.57;;;;;;;;;;4975611;28;20651;-61
2023/09/07 03:07:55;;;;;;;533.63;249.93;;;;;;;;;;4966062;28;20222;-62
2023/09/07 03:10:21;;;;;;;499.40;230.93;;;;;;;;;;4968212;28;20233;-63
2023/09/07 03:12:47;;;;;;;523.47;251.30;;;;;;;;;;4965662;28;20692;-62
2023/09/07 03:15:13;;;;;;;540.10;254.00;;;;;;;;;;4967852;28;20222;-62
2023/09/07 03:17:39;;;;;;;506.17;240.60;;;;;;;;;;4964932;28;20234;-62
2023/09/07 03:20:14;;;;;;;515.70;243.33;;;;;;;;;;4966564;28;20197;-62
2023/09/07 03:22:42;;;;;;;511.80;238.53;;;;;;;;;;4952360;28;20217;-63
2023/09/07 03:25:09;;;;;;;493.90;223.70;;;;;;;;;;4953142;28;20604;-63
2023/09/07 03:27:35;;;;;;;496.97;234.93;;;;;;;;;;4967301;28;20380;-63
2023/09/07 03:30:01;;;;;;;475.47;223.17;;;;;;;;;;4950471;28;20279;-63
2023/09/07 03:32:31;;;;;;;523.17;246.20;;;;;;;;;;4966300;28;20612;-62
2023/09/07 03:34:57;;;;;;;532.17;257.57;;;;;;;;;;4965689;28;20257;-61
2023/09/07 03:37:23;;;;;;;518.80;240.80;;;;;;;;;;4966855;28;20222;-62
2023/09/07 03:39:50;;;;;;;512.00;234.90;;;;;;;;;;4967145;28;20814;-62
2023/09/07 03:42:16;;;;;;;504.87;227.90;;;;;;;;;;4966796;28;20233;-63
2023/09/07 03:44:42;;;;;;;538.70;252.03;;;;;;;;;;4968097;28;20193;-62
2023/09/07 03:47:08;;;;;;;484.33;221.57;;;;;;;;;;4969649;28;21644;-63
2023/09/07 03:49:34;;;;;;;501.33;240.03;;;;;;;;;;4964025;28;20245;-63
2023/09/07 03:52:00;;;;;;;514.33;243.67;;;;;;;;;;4964926;28;20300;-63
2023/09/07 03:54:26;;;;;;;483.60;222.50;;;;;;;;;;4968706;28;20230;-63
2023/09/07 03:56:53;;;;;;;508.17;235.47;;;;;;;;;;4982041;28;20272;-63
2023/09/07 03:59:19;;;;;;;534.80;249.90;;;;;;;;;;4970990;28;20201;-63
2023/09/07 04:01:45;;;;;;;511.30;233.63;;;;;;;;;;4966450;28;20224;-62
2023/09/07 04:04:11;;;;;;;508.67;234.27;;;;;;;;;;4970107;28;20275;-62
2023/09/07 04:06:37;;;;;;;473.67;218.10;;;;;;;;;;4970321;28;20306;-62
2023/09/07 04:09:03;;;;;;;493.67;231.60;;;;;;;;;;4964544;28;20216;-63
2023/09/07 04:11:29;;;;;;;472.73;220.00;;;;;;;;;;4975406;28;20624;-62
2023/09/07 04:13:55;;;;;;;524.63;242.73;;;;;;;;;;4973709;28;20678;-62
2023/09/07 04:16:20;;;;;;;489.93;225.60;;;;;;;;;;4965512;28;20244;-62
2023/09/07 04:18:46;;;;;;;505.20;241.37;;;;;;;;;;4967672;28;20225;-63
2023/09/07 04:21:12;;;;;;;473.30;215.77;;;;;;;;;;4966885;28;20209;-63
2023/09/07 04:23:38;;;;;;;487.00;221.07;;;;;;;;;;4966283;28;20228;-63
2023/09/07 04:26:06;;;;;;;507.63;228.37;;;;;;;;;;4965283;28;20182;-62
2023/09/07 04:28:32;;;;;;;488.27;220.73;;;;;;;;;;4971309;28;20888;-63
2023/09/07 04:30:58;;;;;;;515.43;241.57;;;;;;;;;;4966290;28;20218;-62
2023/09/07 04:33:24;;;;;;;544.10;251.40;;;;;;;;;;4964420;28;20232;-61
2023/09/07 04:35:50;;;;;;;527.33;244.37;;;;;;;;;;4966827;28;20598;-62
2023/09/07 04:38:16;;;;;;;502.77;229.73;;;;;;;;;;4977502;28;20664;-63
2023/09/07 04:40:42;;;;;;;533.20;243.90;;;;;;;;;;4945509;28;20305;-62
2023/09/07 04:43:08;;;;;;;528.53;241.27;;;;;;;;;;4967444;28;20385;-63
2023/09/07 04:45:34;;;;;;;518.10;243.60;;;;;;;;;;4962172;28;20221;-62
2023/09/07 04:47:59;;;;;;;553.43;262.57;;;;;;;;;;4962039;28;20225;-63
2023/09/07 04:50:25;;;;;;;506.17;236.30;;;;;;;;;;4969134;28;20202;-62
2023/09/07 04:52:51;;;;;;;484.30;215.10;;;;;;;;;;4974428;28;20240;-63
2023/09/07 04:55:17;;;;;;;504.10;228.33;;;;;;;;;;4971038;28;20677;-63
2023/09/07 04:57:43;;;;;;;502.97;229.50;;;;;;;;;;4968750;28;20684;-62
2023/09/07 05:00:09;;;;;;;574.07;277.10;;;;;;;;;;4949440;28;20221;-63
2023/09/07 05:02:40;;;;;;;484.00;226.80;;;;;;;;;;4973453;28;20785;-63
2023/09/07 05:05:06;;;;;;;515.77;244.17;;;;;;;;;;4974514;28;20244;-62
2023/09/07 05:07:32;;;;;;;516.57;243.20;;;;;;;;;;4947915;28;20229;-62
2023/09/07 05:09:58;;;;;;;481.33;223.77;;;;;;;;;;4968852;28;20222;-62
2023/09/07 05:12:24;;;;;;;529.87;254.97;;;;;;;;;;4962755;28;20233;-60
2023/09/07 05:14:50;;;;;;;575.97;275.47;;;;;;;;;;4963638;28;20640;-61
2023/09/07 05:17:16;;;;;;;512.93;243.13;;;;;;;;;;4957623;28;20189;-61
2023/09/07 05:19:42;;;;;;;495.13;227.37;;;;;;;;;;4958882;28;20213;-60
2023/09/07 05:22:08;;;;;;;496.07;233.97;;;;;;;;;;4966656;28;20209;-62
2023/09/07 05:24:34;;;;;;;516.73;238.47;;;;;;;;;;4945847;28;20769;-62
2023/09/07 05:27:00;;;;;;;497.40;239.07;;;;;;;;;;4965231;28;20300;-60
2023/09/07 05:29:26;;;;;;;527.80;246.47;;;;;;;;;;4949108;28;20182;-62
2023/09/07 05:31:51;;;;;;;502.40;232.33;;;;;;;;;;4964307;28;20328;-62
2023/09/07 05:34:18;;;;;;;503.60;235.37;;;;;;;;;;4960991;28;21694;-60
2023/09/07 05:36:43;;;;;;;512.30;237.73;;;;;;;;;;4966398;28;20251;-60
2023/09/07 05:39:09;;;;;;;537.73;259.17;;;;;;;;;;4967958;28;20300;-61
2023/09/07 05:41:35;;;;;;;449.63;211.07;;;;;;;;;;4975653;28;20194;-60
2023/09/07 05:44:02;;;;;;;502.40;239.50;;;;;;;;;;4979170;28;20272;-62
2023/09/07 05:46:28;;;;;;;505.83;241.17;;;;;;;;;;4971946;28;20245;-65
2023/09/07 05:48:54;;;;;;;515.57;240.07;;;;;;;;;;4968552;28;20312;-65
2023/09/07 05:51:20;;;;;;;574.23;281.20;;;;;;;;;;4947555;28;20217;-64
2023/09/07 05:53:46;;;;;;;549.33;270.60;;;;;;;;;;4967240;28;20236;-63
2023/09/07 05:56:11;;;;;;;521.03;254.97;;;;;;;;;;4966223;28;20189;-63
2023/09/07 05:58:37;;;;;;;472.60;231.60;;;;;;;;;;4962298;28;20850;-64
2023/09/07 06:01:05;;;;;;;479.80;228.53;;;;;;;;;;4987011;28;20240;-65
2023/09/07 06:03:32;;;;;;;531.33;264.27;;;;;;;;;;4977802;28;20225;-65
2023/09/07 06:05:58;;;;;;;500.27;234.50;;;;;;;;;;4984462;28;20222;-65
2023/09/07 06:08:24;;;;;;;482.03;223.80;;;;;;;;;;4989862;28;20212;-65
2023/09/07 06:10:50;;;;;;;529.30;258.03;;;;;;;;;;4982073;28;20629;-64
2023/09/07 06:13:16;;;;;;;510.57;245.93;;;;;;;;;;4988301;28;20217;-65
2023/09/07 06:15:42;;;;;;;572.13;289.77;;;;;;;;;;4979792;28;20789;-61
2023/09/07 06:18:08;;;;;;;512.53;249.20;;;;;;;;;;4991767;28;20311;-61
2023/09/07 06:20:35;;;;;;;546.43;270.20;;;;;;;;;;4982560;28;20193;-63
2023/09/07 06:23:01;;;;;;;505.67;241.33;;;;;;;;;;4993219;28;20235;-65
2023/09/07 06:25:27;;;;;;;463.53;220.93;;;;;;;;;;4986097;28;20706;-65
2023/09/07 06:27:53;;;;;;;474.47;229.47;;;;;;;;;;4995291;28;20212;-65
2023/09/07 06:30:19;;;;;;;525.37;262.33;;;;;;;;;;4993153;28;20213;-66
2023/09/07 06:32:45;;;;;;;519.23;253.73;;;;;;;;;;4987653;28;20205;-64
2023/09/07 06:35:11;;;;;;;515.23;248.07;;;;;;;;;;4982650;28;20250;-63
2023/09/07 06:37:40;;;;;;;508.27;250.33;;;;;;;;;;4981197;28;20737;-63
2023/09/07 06:40:06;;;;;;;554.90;275.13;;;;;;;;;;4981988;28;20220;-64
2023/09/07 06:42:32;;;;;;;519.70;257.13;;;;;;;;;;4978716;28;20366;-64
2023/09/07 06:44:58;;;;;;;492.57;237.80;;;;;;;;;;4969135;28;20665;-64
2023/09/07 06:47:24;;;;;;;561.60;276.17;;;;;;;;;;4981370;28;20275;-65
2023/09/07 06:49:50;;;;;;;536.37;265.57;;;;;;;;;;4988768;28;20231;-64
2023/09/07 06:52:16;;;;;;;545.47;275.83;;;;;;;;;;4989001;28;20270;-62
2023/09/07 06:54:42;;;;;;;507.47;246.70;;;;;;;;;;4990494;28;20472;-65
2023/09/07 06:57:08;;;;;;;501.17;246.07;;;;;;;;;;4992518;28;20699;-65
2023/09/07 06:59:35;;;;;;;506.17;254.53;;;;;;;;;;4992577;28;20659;-63
2023/09/07 07:02:01;;;;;;;512.63;255.60;;;;;;;;;;4980338;28;21822;-63
2023/09/07 07:04:27;;;;;;;501.87;249.23;;;;;;;;;;4993627;28;20216;-65
2023/09/07 07:06:53;;;;;;;492.30;249.17;;;;;;;;;;4987566;28;20283;-63
2023/09/07 07:09:19;;;;;;;534.00;274.87;;;;;;;;;;4967628;28;20234;-67
2023/09/07 07:11:45;;;;;;;568.63;298.50;;;;;;;;;;4979983;28;20276;-66
2023/09/07 07:14:11;;;;;;;534.73;273.03;;;;;;;;;;4974110;28;20600;-64
2023/09/07 07:16:38;;;;;;;504.20;259.53;;;;;;;;;;4976456;28;21998;-63
2023/09/07 07:19:03;;;;;;;537.50;282.77;;;;;;;;;;4976875;28;20298;-63
2023/09/07 07:21:29;;;;;;;532.53;280.80;;;;;;;;;;4971165;28;20364;-64
2023/09/07 07:23:55;;;;;;;521.70;269.27;;;;;;;;;;4952070;28;20585;-63
2023/09/07 07:26:21;;;;;;;533.17;275.63;;;;;;;;;;4978341;28;20205;-60
2023/09/07 07:28:47;;;;;;;521.30;273.03;;;;;;;;;;4977303;28;20261;-61
2023/09/07 07:31:13;;;;;;;544.83;284.87;;;;;;;;;;4978082;28;20220;-61
2023/09/07 07:33:39;;;;;;;527.80;275.90;;;;;;;;;;4972474;28;20236;-61
2023/09/07 07:36:05;;;;;;;519.47;276.90;;;;;;;;;;4972904;28;20216;-60
2023/09/07 07:38:31;;;;;;;522.53;276.83;;;;;;;;;;4972999;28;20181;-61
2023/09/07 07:40:57;;;;;;;515.87;271.87;;;;;;;;;;4968687;28;20255;-62
2023/09/07 07:43:23;;;;;;;532.67;279.03;;;;;;;;;;4974701;28;20216;-60
2023/09/07 07:45:49;;;;;;;479.00;256.43;;;;;;;;;;4976095;28;20966;-62
2023/09/07 07:48:15;;;;;;;528.07;280.90;;;;;;;;;;4970578;28;20249;-60
2023/09/07 07:50:41;;;;;;;515.80;277.03;;;;;;;;;;4974360;28;21208;-62
2023/09/07 07:53:07;;;;;;;534.77;284.83;;;;;;;;;;4976565;28;22576;-60
2023/09/07 07:55:38;;;;;;;527.10;287.07;;;;;;;;;;4963802;28;20289;-62
2023/09/07 07:58:07;;;;;;;528.47;280.73;;;;;;;;;;4979626;28;20738;-61
2023/09/07 08:00:34;;;;;;;606.30;334.13;;;;;;;;;;4969955;28;20240;-61
2023/09/07 08:03:00;;;;;;;479.77;256.77;;;;;;;;;;4976841;28;20249;-59
2023/09/07 08:05:26;;;;;;;567.60;310.43;;;;;;;;;;4974903;28;20189;-61
2023/09/07 08:07:53;;;;;;;495.47;266.23;;;;;;;;;;4972836;28;20209;-61
2023/09/07 08:10:19;;;;;;;529.13;293.50;;;;;;;;;;4968446;28;20231;-60
2023/09/07 08:12:45;;;;;;;503.47;273.00;;;;;;;;;;4979095;28;20307;-61
2023/09/07 08:15:11;;;;;;;534.47;289.50;;;;;;;;;;4968949;28;20316;-61
2023/09/07 08:17:37;;;;;;;514.43;273.77;;;;;;;;;;4964663;28;20185;-60
2023/09/07 08:20:03;;;;;;;516.47;286.77;;;;;;;;;;4969566;28;20220;-62
2023/09/07 08:22:29;;;;;;;537.73;294.13;;;;;;;;;;4988607;28;20224;-60
2023/09/07 08:24:56;;;;;;;491.23;267.87;;;;;;;;;;4970320;28;20254;-61
2023/09/07 08:27:22;;;;;;;565.50;320.17;;;;;;;;;;4971608;28;20987;-62
2023/09/07 08:29:51;;;;;;;565.13;320.77;;;;;;;;;;4973683;28;20262;-61
2023/09/07 08:32:17;;;;;;;541.63;304.03;;;;;;;;;;4972321;28;20185;-62
2023/09/07 08:34:43;;;;;;;470.60;265.53;;;;;;;;;;4967578;28;20223;-63
2023/09/07 08:37:09;;;;;;;491.03;273.27;;;;;;;;;;4973682;28;20304;-62
2023/09/07 08:39:36;;;;;;;518.37;293.47;;;;;;;;;;4973731;28;20232;-63
2023/09/07 08:42:02;;;;;;;520.37;296.00;;;;;;;;;;4977684;28;20253;-62
2023/09/07 08:44:29;;;;;;;582.27;336.77;;;;;;;;;;4963838;28;20255;-64
2023/09/07 08:46:55;;;;;;;516.40;298.90;;;;;;;;;;4951462;28;20284;-65
2023/09/07 08:49:23;;;;;;;573.97;338.17;;;;;;;;;;4966914;28;20584;-64
2023/09/07 08:51:49;;;;;;;565.67;330.43;;;;;;;;;;4973453;28;20213;-64
2023/09/07 08:54:15;;;;;;;567.57;334.00;;;;;;;;;;4966346;28;20796;-64
2023/09/07 08:56:40;;;;;;;544.90;329.67;;;;;;;;;;4971829;28;20201;-65
2023/09/07 08:59:06;;;;;;;516.03;310.40;;;;;;;;;;4972551;28;20276;-65
2023/09/07 09:01:32;;;;;;;505.90;297.87;;;;;;;;;;4979910;28;20223;-64
2023/09/07 09:03:59;;;;;;;506.77;305.10;;;;;;;;;;4966854;28;20229;-64
2023/09/07 09:06:25;;;;;;;540.07;325.50;;;;;;;;;;4962493;28;20600;-64
2023/09/07 09:08:55;;;;;;;542.50;328.23;;;;;;;;;;4975800;28;20212;-64
2023/09/07 09:11:22;;;;;;;531.37;313.20;;;;;;;;;;4976984;28;20259;-65
2023/09/07 09:13:49;;;;;;;481.20;299.27;;;;;;;;;;4978810;28;20252;-64
2023/09/07 09:16:15;;;;;;;486.63;302.60;;;;;;;;;;4974753;28;20675;-64
2023/09/07 09:19:10;;;;;;;505.17;311.30;;;;;;;;;;4980051;28;20217;-64
2023/09/07 09:21:36;;;;;;;477.23;298.53;;;;;;;;;;4961822;28;20220;-65
2023/09/07 09:24:02;;;;;;;536.10;335.87;;;;;;;;;;4977465;28;20732;-64
2023/09/07 09:26:28;;;;;;;547.20;333.90;;;;;;;;;;4971341;28;20280;-64
2023/09/07 09:28:56;;;;;;;520.77;327.97;;;;;;;;;;4980779;28;20220;-65
2023/09/07 09:31:21;;;;;;;537.03;340.00;;;;;;;;;;4975524;28;20220;-64
2023/09/07 09:33:53;;;;;;;491.43;308.47;;;;;;;;;;4988225;28;20228;-65
2023/09/07 09:36:20;;;;;;;549.27;352.13;;;;;;;;;;4978433;28;20222;-65
2023/09/07 09:38:50;;;;;;;446.17;304.03;;;;;;;;;;4993351;28;20232;-65
2023/09/07 09:41:17;;;;;;;430.40;298.60;;;;;;;;;;5001132;28;20180;-64
2023/09/07 09:43:45;;;;;;;416.67;294.30;;;;;;;;;;4996516;28;20228;-65
2023/09/07 09:46:13;;;;;;;438.40;301.27;;;;;;;;;;4998412;28;20216;-65
2023/09/07 09:48:40;;;;;;;432.50;304.80;;;;;;;;;;5003700;28;20209;-65
2023/09/07 09:51:07;;;;;;;429.17;299.93;;;;;;;;;;5001561;28;20229;-65
2023/09/07 09:53:33;;;;;;;618.40;422.97;;;;;;;;;;4968689;28;20393;-64
2023/09/07 09:56:00;;;;;;;488.23;323.53;;;;;;;;;;4981913;28;20222;-65
2023/09/07 09:58:27;;;;;;;517.90;343.07;;;;;;;;;;4973937;28;20224;-69
2023/09/07 10:00:55;;;;;;;521.20;342.20;;;;;;;;;;4974951;28;20223;-66
2023/09/07 10:03:26;;;;;;;508.27;336.10;;;;;;;;;;4980437;28;20220;-66
2023/09/07 10:05:52;;;;;;;525.43;342.57;;;;;;;;;;4971450;28;20225;-66
2023/09/07 10:08:18;;;;;;;529.93;354.03;;;;;;;;;;4974358;28;20189;-65
2023/09/07 10:10:47;;;;;;;516.70;344.17;;;;;;;;;;4975813;28;20213;-66
2023/09/07 10:13:16;;;;;;;553.33;365.93;;;;;;;;;;4984245;28;20217;-67
2023/09/07 10:15:43;;;;;;;521.70;349.57;;;;;;;;;;4974776;28;20224;-66
2023/09/07 10:18:13;;;;;;;560.13;375.30;;;;;;;;;;4971497;28;20309;-59
2023/09/07 10:20:52;;;;;;;577.97;384.90;;;;;;;;;;4972874;28;20190;-61
2023/09/07 10:23:18;;;;;;;524.60;356.17;;;;;;;;;;4970170;28;20213;-60
2023/09/07 10:25:49;;;;;;;564.93;382.83;;;;;;;;;;4972539;28;20308;-60
2023/09/07 10:28:22;;;;;;;581.27;396.27;;;;;;;;;;4971872;28;20271;-59
2023/09/07 10:30:58;;;;;;;517.93;355.73;;;;;;;;;;4973332;28;20227;-60
2023/09/07 10:33:24;;;;;;;529.10;360.17;;;;;;;;;;4982458;28;20248;-60
2023/09/07 10:35:49;;;;;;;541.03;370.30;;;;;;;;;;4978511;28;20605;-59
2023/09/07 10:38:15;;;;;;;527.60;366.73;;;;;;;;;;4973472;28;20181;-60
2023/09/07 10:40:44;;;;;;;509.80;351.87;;;;;;;;;;4973614;28;21625;-59
2023/09/07 10:43:10;;;;;;;528.87;363.60;;;;;;;;;;4968021;28;20236;-60
2023/09/07 10:45:36;;;;;;;574.67;386.03;;;;;;;;;;4972728;28;20209;-60
2023/09/07 10:48:07;;;;;;;513.57;359.80;;;;;;;;;;4974787;28;20964;-60
2023/09/07 10:50:42;;;;;;;559.17;383.43;;;;;;;;;;4977295;28;20201;-60
2023/09/07 10:53:08;;;;;;;494.30;351.57;;;;;;;;;;4972703;28;20225;-58
2023/09/07 10:55:43;;;;;;;555.57;387.53;;;;;;;;;;4966076;28;20226;-58
2023/09/07 10:58:10;;;;;;;525.57;376.07;;;;;;;;;;4971641;28;21381;-60
2023/09/07 11:00:36;;;;;;;589.23;419.30;;;;;;;;;;4970283;28;20307;-63
2023/09/07 11:03:09;;;;;;;525.23;366.93;;;;;;;;;;4976949;28;20256;-63
2023/09/07 11:05:36;;;;;;;574.20;398.20;;;;;;;;;;4983989;28;20266;-63
2023/09/07 11:08:02;;;;;;;496.90;361.43;;;;;;;;;;4972205;28;20214;-63
2023/09/07 11:10:28;;;;;;;536.83;388.47;;;;;;;;;;4980537;28;20213;-62
2023/09/07 11:12:54;;;;;;;497.43;362.47;;;;;;;;;;4980483;28;20212;-61
2023/09/07 11:15:20;;;;;;;511.53;372.83;;;;;;;;;;4973586;28;20544;-63
2023/09/07 11:17:46;;;;;;;533.70;385.77;;;;;;;;;;4981827;28;20181;-62
2023/09/07 11:20:12;;;;;;;508.73;375.23;;;;;;;;;;4972154;28;20186;-62
2023/09/07 11:22:38;;;;;;;559.20;400.97;;;;;;;;;;4982278;28;20891;-62
2023/09/07 11:25:05;;;;;;;513.87;374.70;;;;;;;;;;4989293;28;20216;-61
2023/09/07 11:27:34;;;;;;;568.03;407.97;;;;;;;;;;4977484;28;20217;-63
2023/09/07 11:30:03;;;;;;;530.67;376.73;;;;;;;;;;4976912;28;20225;-63
2023/09/07 11:32:33;;;;;;;562.10;408.43;;;;;;;;;;4978774;28;20203;-62
2023/09/07 11:34:59;;;;;;;503.70;372.90;;;;;;;;;;4974937;28;20225;-62
2023/09/07 11:37:25;;;;;;;519.47;386.27;;;;;;;;;;4992517;28;20622;-63
2023/09/07 11:39:51;;;;;;;528.33;387.33;;;;;;;;;;4987433;28;20283;-63
2023/09/07 11:42:17;;;;;;;540.67;404.87;;;;;;;;;;4992611;28;20296;-62
2023/09/07 11:44:43;;;;;;;516.73;393.67;;;;;;;;;;4990610;28;20275;-61
2023/09/07 11:47:09;;;;;;;497.00;393.43;;;;;;;;;;4976107;28;20194;-63
2023/09/07 11:49:35;;;;;;;583.77;428.80;;;;;;;;;;4969085;28;20668;-62
2023/09/07 11:52:01;;;;;;;542.10;411.70;;;;;;;;;;4969715;28;20295;-63
2023/09/07 11:54:27;;;;;;;532.23;421.10;;;;;;;;;;4967191;28;20717;-61
2023/09/07 11:56:53;;;;;;;564.67;425.77;;;;;;;;;;4962525;28;20204;-63
2023/09/07 11:59:19;;;;;;;541.87;412.10;;;;;;;;;;4970948;28;20661;-62
2023/09/07 12:01:45;;;;;;;536.27;406.17;;;;;;;;;;4970980;28;20222;-63
2023/09/07 12:04:11;;;;;;;526.20;400.07;;;;;;;;;;4973327;28;20216;-62
2023/09/07 12:06:37;;;;;;;550.03;415.33;;;;;;;;;;4965978;28;20857;-61
2023/09/07 12:09:04;;;;;;;546.83;413.33;;;;;;;;;;4970326;28;20221;-61
2023/09/07 12:11:33;;;;;;;563.47;415.87;;;;;;;;;;4966819;28;20237;-61
2023/09/07 12:13:59;;;;;;;551.13;424.23;;;;;;;;;;4972307;28;20226;-63
2023/09/07 12:16:28;;;;;;;532.13;427.83;;;;;;;;;;4974806;28;20212;-61
2023/09/07 12:18:55;;;;;;;560.60;435.10;;;;;;;;;;4976916;28;22330;-63
2023/09/07 12:21:21;;;;;;;556.20;438.10;;;;;;;;;;4972523;28;20690;-63
2023/09/07 12:23:47;;;;;;;610.90;480.27;;;;;;;;;;4966914;28;20289;-63
2023/09/07 12:26:14;;;;;;;546.10;437.60;;;;;;;;;;4966001;28;20210;-63
2023/09/07 12:28:40;;;;;;;576.13;455.50;;;;;;;;;;4967945;28;20237;-63
2023/09/07 12:31:07;;;;;;;556.37;445.57;;;;;;;;;;4972533;28;20307;-63
2023/09/07 12:33:33;;;;;;;555.20;445.23;;;;;;;;;;4970152;28;20229;-63
2023/09/07 12:35:59;;;;;;;532.37;439.57;;;;;;;;;;4983188;28;20216;-63
2023/09/07 12:38:28;;;;;;;514.47;431.00;;;;;;;;;;4976857;28;20185;-64
2023/09/07 12:40:54;;;;;;;552.00;447.67;;;;;;;;;;4971002;28;20663;-62
2023/09/07 12:43:20;;;;;;;515.77;436.60;;;;;;;;;;4971958;28;20270;-62
2023/09/07 12:45:46;;;;;;;552.80;453.77;;;;;;;;;;4973438;28;20209;-64
2023/09/07 12:48:12;;;;;;;588.00;466.57;;;;;;;;;;4964890;28;20659;-63
2023/09/07 12:50:42;;;;;;;564.30;452.30;;;;;;;;;;4970487;28;20286;-63
2023/09/07 12:53:08;;;;;;;538.17;445.73;;;;;;;;;;4979021;28;20303;-64
2023/09/07 12:55:35;;;;;;;554.77;445.60;;;;;;;;;;4974656;28;20647;-64
2023/09/07 12:58:00;;;;;;;602.07;476.80;;;;;;;;;;4969338;28;20896;-63
2023/09/07 13:00:28;;;;;;;624.67;499.43;;;;;;;;;;4962606;28;20577;-60
2023/09/07 13:02:54;;;;;;;548.40;458.37;;;;;;;;;;4955119;28;20235;-60
2023/09/07 13:05:20;;;;;;;530.17;466.23;;;;;;;;;;4980147;28;20189;-59
2023/09/07 13:07:46;;;;;;;580.40;477.53;;;;;;;;;;4981282;28;20213;-60
2023/09/07 13:10:12;;;;;;;566.93;475.50;;;;;;;;;;4980269;28;20260;-60
2023/09/07 13:12:38;;;;;;;575.57;492.80;;;;;;;;;;4970807;28;20322;-61
2023/09/07 13:15:04;;;;;;;552.27;470.30;;;;;;;;;;4980511;28;20731;-60
2023/09/07 13:17:31;;;;;;;533.77;465.77;;;;;;;;;;4990909;28;20188;-61
2023/09/07 13:19:56;;;;;;;548.27;472.03;;;;;;;;;;4986468;28;20224;-60
2023/09/07 13:22:23;;;;;;;539.30;457.97;;;;;;;;;;4986153;28;20394;-60
2023/09/07 13:24:48;;;;;;;580.77;485.43;;;;;;;;;;4989206;28;20220;-59
2023/09/07 13:27:15;;;;;;;561.23;498.43;;;;;;;;;;4970549;28;20228;-59
2023/09/07 13:29:41;;;;;;;556.70;486.90;;;;;;;;;;4982406;28;20185;-61
2023/09/07 13:32:07;;;;;;;536.77;477.97;;;;;;;;;;4988318;28;20243;-61
2023/09/07 13:34:33;;;;;;;559.90;487.53;;;;;;;;;;4990322;28;20239;-60
2023/09/07 13:36:59;;;;;;;542.33;483.23;;;;;;;;;;4989583;28;20216;-61
2023/09/07 13:39:25;;;;;;;525.93;464.00;;;;;;;;;;4988191;28;20213;-61
2023/09/07 13:41:51;;;;;;;579.03;516.40;;;;;;;;;;4987567;28;20181;-61
2023/09/07 13:44:17;;;;;;;574.30;511.70;;;;;;;;;;4985668;28;20710;-61
2023/09/07 13:46:44;;;;;;;571.87;509.60;;;;;;;;;;4987151;28;20308;-61
2023/09/07 13:49:10;;;;;;;571.90;513.10;;;;;;;;;;4988293;28;20597;-61